Time;durP1;ratioP1;P1;durP2;ratioP2;P2;SDS_P1;SDS_P2;PMS_P1;PMS_P2;Temp;Humidity;BMP_temperature;BMP_pressure;BME280_temperature;BME280_humidity;BME280_pressure;Samples;Min_cycle;Max_cycle;Signal;HPM_P1;HPM_P2
2023/06/10 00:00:46;;;;;;;7.88;3.38;;;17.30;99.90;;;;;;4199289;28;20048;-85
2023/06/10 00:02:47;;;;;;;6.22;2.92;;;17.30;99.90;;;;;;4199394;28;20045;-86
2023/06/10 00:04:48;;;;;;;6.55;3.22;;;17.30;99.90;;;;;;4216309;28;20036;-86
2023/06/10 00:06:49;;;;;;;5.88;2.90;;;17.30;99.90;;;;;;4193428;28;20107;-87
2023/06/10 00:08:51;;;;;;;7.75;3.78;;;17.20;99.90;;;;;;4181758;28;20052;-86
2023/06/10 00:10:51;;;;;;;7.03;2.90;;;17.30;99.90;;;;;;4182974;28;20057;-87
2023/06/10 00:12:53;;;;;;;6.43;2.90;;;17.20;99.90;;;;;;4214097;28;20430;-86
2023/06/10 00:14:55;;;;;;;7.78;3.10;;;17.20;99.90;;;;;;4199033;28;20080;-86
2023/06/10 00:16:57;;;;;;;4.63;3.05;;;17.20;99.90;;;;;;4198845;28;20052;-86
2023/06/10 00:19:03;;;;;;;7.85;3.15;;;17.20;99.90;;;;;;4198327;28;20489;-86
2023/06/10 00:21:04;;;;;;;7.15;3.20;;;17.10;99.90;;;;;;4198540;28;20048;-87
2023/06/10 00:23:08;;;;;;;6.85;2.70;;;17.10;99.90;;;;;;4197924;28;20088;-86
2023/06/10 00:25:10;;;;;;;8.52;2.63;;;17.10;99.90;;;;;;4204607;28;20049;-86
2023/06/10 00:27:11;;;;;;;6.25;2.83;;;17.00;99.90;;;;;;4198100;28;20068;-86
2023/06/10 00:29:12;;;;;;;9.52;4.05;;;17.00;99.90;;;;;;4198226;28;20074;-86
2023/06/10 00:31:12;;;;;;;6.97;2.63;;;17.00;99.90;;;;;;4198222;28;20049;-85
2023/06/10 00:33:13;;;;;;;5.35;3.00;;;17.00;99.90;;;;;;4215625;28;20119;-86
2023/06/10 00:35:14;;;;;;;5.65;2.95;;;16.90;99.90;;;;;;4198046;28;20059;-86
2023/06/10 00:37:15;;;;;;;7.75;3.22;;;16.90;99.90;;;;;;4214706;28;20083;-86
2023/06/10 00:39:16;;;;;;;11.52;4.05;;;16.80;99.90;;;;;;4198840;28;20044;-86
2023/06/10 00:41:17;;;;;;;9.02;3.10;;;16.80;99.90;;;;;;4215341;28;20040;-86
2023/06/10 00:43:18;;;;;;;7.75;3.08;;;16.80;99.90;;;;;;4190280;28;20057;-86
2023/06/10 00:45:19;;;;;;;8.77;3.03;;;16.70;99.90;;;;;;4189428;28;20040;-86
2023/06/10 00:47:20;;;;;;;6.70;3.28;;;16.70;99.90;;;;;;4195082;28;20061;-86
2023/06/10 00:49:21;;;;;;;6.80;2.55;;;16.70;99.90;;;;;;4202364;28;20094;-86
2023/06/10 00:51:22;;;;;;;9.30;3.42;;;16.70;99.90;;;;;;4213378;28;20036;-86
2023/06/10 00:53:23;;;;;;;7.82;3.60;;;16.60;99.90;;;;;;4213840;28;20068;-86
2023/06/10 00:55:27;;;;;;;7.47;3.88;;;16.60;99.90;;;;;;4213135;28;20037;-86
2023/06/10 00:57:29;;;;;;;6.35;3.00;;;16.40;99.90;;;;;;4168674;28;20787;-86
2023/06/10 00:59:30;;;;;;;4.55;2.60;;;16.50;99.90;;;;;;4184680;28;20049;-86
2023/06/10 01:01:32;;;;;;;7.22;2.95;;;16.50;99.90;;;;;;4184638;28;20068;-86
2023/06/10 01:03:36;;;;;;;7.15;3.20;;;16.40;99.90;;;;;;4202160;28;20056;-86
2023/06/10 01:05:38;;;;;;;8.05;3.38;;;16.40;99.90;;;;;;4184159;28;20053;-86
2023/06/10 01:08:04;;;;;;;8.02;3.45;;;16.30;99.90;;;;;;4184486;28;20045;-86
2023/06/10 01:10:30;;;;;;;7.05;3.30;;;16.30;99.90;;;;;;4202545;28;20044;-86
2023/06/10 01:12:48;;;;;;;8.88;2.70;;;16.30;99.90;;;;;;4183853;28;20045;-86
2023/06/10 01:14:50;;;;;;;6.43;2.85;;;16.20;99.90;;;;;;4202055;28;20036;-86
2023/06/10 01:16:55;;;;;;;5.40;2.80;;;16.20;99.90;;;;;;4197882;28;20048;-86
2023/06/10 01:18:55;;;;;;;6.38;2.92;;;16.20;99.90;;;;;;4205691;28;20391;-86
2023/06/10 01:20:57;;;;;;;8.98;3.65;;;16.10;99.90;;;;;;4180858;28;20053;-86
2023/06/10 01:23:02;;;;;;;6.78;2.70;;;16.10;99.90;;;;;;4188102;28;20044;-86
2023/06/10 01:25:04;;;;;;;12.32;3.38;;;16.10;99.90;;;;;;4199779;28;20102;-86
2023/06/10 01:27:12;;;;;;;7.30;2.88;;;16.00;99.90;;;;;;4200921;28;20049;-85
2023/06/10 01:29:37;;;;;;;7.20;2.90;;;15.90;99.90;;;;;;4218508;28;20040;-86
2023/06/10 01:31:58;;;;;;;5.30;3.08;;;15.90;99.90;;;;;;4198986;28;20101;-85
2023/06/10 01:33:59;;;;;;;7.20;2.88;;;15.80;99.90;;;;;;4217168;28;20044;-86
2023/06/10 01:36:01;;;;;;;6.20;3.30;;;15.80;99.90;;;;;;4214159;28;20123;-86
2023/06/10 01:38:03;;;;;;;9.55;3.35;;;15.70;99.90;;;;;;4200165;28;20067;-86
2023/06/10 01:40:05;;;;;;;5.97;3.42;;;15.70;99.90;;;;;;4183139;28;20053;-84
2023/06/10 01:42:11;;;;;;;8.68;3.33;;;15.70;99.90;;;;;;4179984;28;20041;-86
2023/06/10 01:44:12;;;;;;;7.03;3.47;;;15.60;99.90;;;;;;4215285;28;20056;-86
2023/06/10 01:46:14;;;;;;;9.55;3.08;;;15.50;99.90;;;;;;4199661;28;20048;-86
2023/06/10 01:48:14;;;;;;;6.00;3.25;;;15.40;99.90;;;;;;4218442;28;20048;-86
2023/06/10 01:50:16;;;;;;;10.32;4.20;;;15.40;99.90;;;;;;4199924;28;20048;-86
2023/06/10 01:52:17;;;;;;;5.68;3.00;;;15.30;99.90;;;;;;4216689;28;20087;-85
2023/06/10 01:54:18;;;;;;;10.90;3.55;;;15.30;99.90;;;;;;4200027;28;20058;-85
2023/06/10 01:56:19;;;;;;;10.95;3.75;;;15.20;99.90;;;;;;4216149;28;20515;-85
2023/06/10 01:58:20;;;;;;;8.48;3.17;;;15.20;99.90;;;;;;4200437;28;20052;-86
2023/06/10 02:00:21;;;;;;;9.30;3.70;;;15.20;99.90;;;;;;4218083;28;20511;-85
2023/06/10 02:02:22;;;;;;;7.70;3.70;;;15.10;99.90;;;;;;4200277;28;20233;-85
2023/06/10 02:04:23;;;;;;;8.82;3.20;;;15.10;99.90;;;;;;4200428;28;20048;-86
2023/06/10 02:06:23;;;;;;;9.20;3.60;;;15.00;99.90;;;;;;4198362;28;20151;-86
2023/06/10 02:08:24;;;;;;;8.18;3.42;;;14.90;99.90;;;;;;4212242;28;20555;-86
2023/06/10 02:10:26;;;;;;;5.95;3.40;;;14.90;99.90;;;;;;4167064;28;20156;-85
2023/06/10 02:12:27;;;;;;;6.07;3.70;;;14.90;99.90;;;;;;4200898;28;20087;-85
2023/06/10 02:14:27;;;;;;;7.15;3.83;;;14.80;99.90;;;;;;4200414;28;20033;-85
2023/06/10 02:16:28;;;;;;;5.97;3.20;;;14.70;99.90;;;;;;4197203;28;20041;-85
2023/06/10 02:18:30;;;;;;;12.02;3.30;;;14.70;99.90;;;;;;4217312;28;20083;-85
2023/06/10 02:20:31;;;;;;;7.15;2.88;;;14.60;99.90;;;;;;4196596;28;20037;-85
2023/06/10 02:22:32;;;;;;;9.90;3.42;;;14.50;99.90;;;;;;4199916;28;20063;-85
2023/06/10 02:24:33;;;;;;;6.88;3.60;;;14.50;99.90;;;;;;4182378;28;20071;-85
2023/06/10 02:26:34;;;;;;;7.68;3.90;;;14.40;99.90;;;;;;4183333;28;20045;-85
2023/06/10 02:28:36;;;;;;;7.35;3.95;;;14.40;99.90;;;;;;4199878;28;20048;-85
2023/06/10 02:30:40;;;;;;;8.43;4.00;;;14.30;99.90;;;;;;4183291;28;20036;-85
2023/06/10 02:32:41;;;;;;;10.95;5.07;;;14.30;99.90;;;;;;4200566;28;20040;-85
2023/06/10 02:34:42;;;;;;;11.82;4.50;;;14.20;99.90;;;;;;4200263;28;20100;-85
2023/06/10 02:36:43;;;;;;;9.85;4.63;;;14.20;99.90;;;;;;4202283;28;20036;-86
2023/06/10 02:38:44;;;;;;;8.70;3.67;;;14.10;99.90;;;;;;4208505;28;20094;-86
2023/06/10 02:40:45;;;;;;;7.82;4.13;;;14.10;99.90;;;;;;4207857;28;20044;-85
2023/06/10 02:42:46;;;;;;;6.70;3.85;;;13.90;99.90;;;;;;4216403;28;20490;-85
2023/06/10 02:44:47;;;;;;;8.48;3.85;;;14.00;99.90;;;;;;4198001;28;20049;-86
2023/06/10 02:46:49;;;;;;;7.72;4.03;;;13.90;99.90;;;;;;4214278;28;20048;-85
2023/06/10 02:48:51;;;;;;;6.82;3.53;;;13.90;99.90;;;;;;4191854;28;20043;-86
2023/06/10 02:50:55;;;;;;;8.55;4.80;;;13.90;99.90;;;;;;4191077;28;20053;-86
2023/06/10 02:52:56;;;;;;;6.75;3.63;;;13.90;99.90;;;;;;4216424;28;20115;-86
2023/06/10 02:54:57;;;;;;;7.68;3.42;;;13.80;99.90;;;;;;4198596;28;20408;-86
2023/06/10 02:56:58;;;;;;;9.20;3.47;;;13.80;99.90;;;;;;4198939;28;20471;-86
2023/06/10 02:58:59;;;;;;;6.97;3.78;;;13.80;99.90;;;;;;4216137;28;20458;-86
2023/06/10 03:01:01;;;;;;;10.38;3.90;;;13.80;99.90;;;;;;4216149;28;20093;-86
2023/06/10 03:03:03;;;;;;;6.40;4.35;;;13.80;99.90;;;;;;4215424;28;20177;-86
2023/06/10 03:05:05;;;;;;;10.93;3.88;;;13.70;99.90;;;;;;4215445;28;20399;-86
2023/06/10 03:07:07;;;;;;;8.77;3.95;;;13.70;99.90;;;;;;4216385;28;20416;-86
2023/06/10 03:09:07;;;;;;;7.97;4.03;;;13.60;99.90;;;;;;4180882;28;20060;-86
2023/06/10 03:11:08;;;;;;;7.80;4.88;;;13.60;99.90;;;;;;4199502;28;20119;-85
2023/06/10 03:13:10;;;;;;;8.73;3.88;;;13.50;99.90;;;;;;4199096;28;20040;-86
2023/06/10 03:15:11;;;;;;;6.82;3.53;;;13.50;99.90;;;;;;4199455;28;20111;-85
2023/06/10 03:17:11;;;;;;;8.45;4.35;;;13.00;99.90;;;;;;4164858;28;20057;-86
2023/06/10 03:19:12;;;;;;;9.80;3.92;;;13.50;99.90;;;;;;4199354;28;20099;-85
2023/06/10 03:21:15;;;;;;;8.60;4.50;;;13.50;99.90;;;;;;4181316;28;20045;-86
2023/06/10 03:23:15;;;;;;;7.63;4.43;;;13.50;99.90;;;;;;4179012;28;20540;-85
2023/06/10 03:25:17;;;;;;;9.88;3.60;;;13.50;99.90;;;;;;4199058;28;20055;-85
2023/06/10 03:27:18;;;;;;;10.07;3.70;;;13.50;99.90;;;;;;4199354;28;20425;-86
2023/06/10 03:29:18;;;;;;;10.82;4.63;;;13.50;99.90;;;;;;4199280;28;20100;-86
2023/06/10 03:31:19;;;;;;;8.02;4.32;;;13.50;99.90;;;;;;4187226;28;20052;-86
2023/06/10 03:33:20;;;;;;;11.40;4.20;;;13.50;99.90;;;;;;4208637;28;20033;-86
2023/06/10 03:35:22;;;;;;;7.72;4.03;;;13.50;99.90;;;;;;4188303;28;20036;-86
2023/06/10 03:37:24;;;;;;;12.52;4.20;;;13.50;99.90;;;;;;4197660;28;20044;-86
2023/06/10 03:39:28;;;;;;;7.00;3.47;;;13.50;99.90;;;;;;4197605;28;20458;-86
2023/06/10 03:41:29;;;;;;;7.05;3.92;;;13.50;99.90;;;;;;4205126;28;20056;-86
2023/06/10 03:43:32;;;;;;;8.88;4.55;;;13.50;99.90;;;;;;4198613;28;20504;-85
2023/06/10 03:45:33;;;;;;;18.40;5.25;;;13.60;99.90;;;;;;4216595;28;20055;-86
2023/06/10 03:47:35;;;;;;;9.20;4.28;;;13.60;99.90;;;;;;4216135;28;20076;-86
2023/06/10 03:49:36;;;;;;;11.45;4.18;;;13.50;99.90;;;;;;4216797;28;20381;-86
2023/06/10 03:51:37;;;;;;;10.25;3.75;;;13.50;99.90;;;;;;4198795;28;20138;-86
2023/06/10 03:53:38;;;;;;;8.68;3.97;;;13.50;99.90;;;;;;4216010;28;20044;-85
2023/06/10 03:55:38;;;;;;;5.80;3.88;;;13.50;99.90;;;;;;4198076;28;20056;-86
2023/06/10 03:57:39;;;;;;;8.60;4.28;;;13.50;99.90;;;;;;4211650;28;20510;-85
2023/06/10 03:59:41;;;;;;;9.30;4.20;;;13.50;99.90;;;;;;4180867;28;20547;-86
2023/06/10 04:01:43;;;;;;;7.50;3.63;;;13.50;99.90;;;;;;4199466;28;20041;-86
2023/06/10 04:03:44;;;;;;;6.90;3.28;;;13.50;99.90;;;;;;4198561;28;20505;-86
2023/06/10 04:05:45;;;;;;;10.63;4.15;;;13.50;99.90;;;;;;4199097;28;20106;-86
2023/06/10 04:07:48;;;;;;;6.95;4.25;;;13.50;99.90;;;;;;4164663;28;20054;-86
2023/06/10 04:09:49;;;;;;;8.45;4.13;;;13.50;99.90;;;;;;4180720;28;20386;-86
2023/06/10 04:11:50;;;;;;;7.72;3.53;;;13.40;99.90;;;;;;4199470;28;20052;-85
2023/06/10 04:13:51;;;;;;;9.52;3.80;;;13.40;99.90;;;;;;4180605;28;20044;-86
2023/06/10 04:15:51;;;;;;;10.48;4.32;;;13.40;99.90;;;;;;4188256;28;20048;-87
2023/06/10 04:17:52;;;;;;;8.63;3.90;;;13.40;99.90;;;;;;4197938;28;20044;-86
2023/06/10 04:19:54;;;;;;;8.18;4.13;;;13.40;99.90;;;;;;4198110;28;20125;-86
2023/06/10 04:21:55;;;;;;;9.10;3.97;;;13.40;99.90;;;;;;4181401;28;20057;-87
2023/06/10 04:23:56;;;;;;;8.23;4.05;;;13.50;99.90;;;;;;4200143;28;20512;-86
2023/06/10 04:25:56;;;;;;;11.02;4.50;;;13.50;99.90;;;;;;4200413;28;20048;-86
2023/06/10 04:27:59;;;;;;;9.77;4.00;;;13.50;99.90;;;;;;4197524;28;20089;-86
2023/06/10 04:29:59;;;;;;;8.25;3.63;;;13.50;99.90;;;;;;4198434;28;20508;-87
2023/06/10 04:32:01;;;;;;;8.23;3.88;;;13.50;99.90;;;;;;4198269;28;20040;-86
2023/06/10 04:34:02;;;;;;;10.77;3.92;;;13.50;99.90;;;;;;4192702;28;20110;-86
2023/06/10 04:36:03;;;;;;;9.85;4.32;;;13.60;99.90;;;;;;4192125;28;20049;-86
2023/06/10 04:38:04;;;;;;;13.10;4.82;;;13.60;99.90;;;;;;4189176;28;20036;-86
2023/06/10 04:40:06;;;;;;;12.20;4.85;;;13.60;99.90;;;;;;4187982;28;20033;-86
2023/06/10 04:42:07;;;;;;;13.60;4.22;;;13.70;99.90;;;;;;4163484;28;20162;-86
2023/06/10 04:44:08;;;;;;;13.00;3.92;;;13.70;99.90;;;;;;4194704;28;20060;-86
2023/06/10 04:46:10;;;;;;;8.32;4.13;;;13.70;99.90;;;;;;4200044;28;20086;-86
2023/06/10 04:48:11;;;;;;;11.90;4.95;;;13.80;99.90;;;;;;4190279;28;20056;-86
2023/06/10 04:50:12;;;;;;;14.25;3.97;;;13.80;99.90;;;;;;4180813;28;20067;-86
2023/06/10 04:52:13;;;;;;;10.70;4.45;;;13.90;99.90;;;;;;4181039;28;20052;-86
2023/06/10 04:54:15;;;;;;;7.30;3.95;;;13.90;99.90;;;;;;4181309;28;20037;-86
2023/06/10 04:56:16;;;;;;;12.90;4.65;;;14.00;99.90;;;;;;4181930;28;20045;-86
2023/06/10 04:58:17;;;;;;;8.57;4.28;;;14.00;99.90;;;;;;4188321;28;20036;-85
2023/06/10 05:00:17;;;;;;;9.80;4.38;;;14.20;99.90;;;;;;4184709;28;20052;-86
2023/06/10 05:02:18;;;;;;;9.80;4.13;;;14.20;99.90;;;;;;4175453;28;20055;-86
2023/06/10 05:04:19;;;;;;;7.53;4.07;;;14.30;99.90;;;;;;4195401;28;20041;-86
2023/06/10 05:06:20;;;;;;;8.55;4.90;;;14.40;99.90;;;;;;4199169;28;20045;-86
2023/06/10 05:08:21;;;;;;;11.32;4.78;;;14.50;99.90;;;;;;4197183;28;20049;-86
2023/06/10 05:10:21;;;;;;;13.65;4.35;;;14.60;99.90;;;;;;4198586;28;20479;-86
2023/06/10 05:12:22;;;;;;;13.23;5.07;;;14.60;99.90;;;;;;4199295;28;20044;-86
2023/06/10 05:14:23;;;;;;;9.90;4.50;;;14.70;99.90;;;;;;4196890;28;20459;-86
2023/06/10 05:16:24;;;;;;;12.23;4.85;;;14.80;99.90;;;;;;4187997;28;20041;-85
2023/06/10 05:18:26;;;;;;;11.50;4.28;;;14.90;99.90;;;;;;4181811;28;20077;-85
2023/06/10 05:20:28;;;;;;;11.88;4.78;;;15.00;99.90;;;;;;4183715;28;20033;-87
2023/06/10 05:22:29;;;;;;;12.82;4.60;;;15.10;99.90;;;;;;4197543;28;20114;-87
2023/06/10 05:24:30;;;;;;;13.20;4.00;;;15.20;99.90;;;;;;4214862;28;20054;-86
2023/06/10 05:26:37;;;;;;;12.55;4.18;;;15.20;99.90;;;;;;4181275;28;20045;-86
2023/06/10 05:28:38;;;;;;;10.55;4.30;;;15.30;99.90;;;;;;4198764;28;20431;-86
2023/06/10 05:30:38;;;;;;;15.43;5.07;;;15.40;99.90;;;;;;4201782;28;20176;-87
2023/06/10 05:32:39;;;;;;;12.30;4.28;;;15.50;99.90;;;;;;4200095;28;20080;-86
2023/06/10 05:34:41;;;;;;;12.43;4.38;;;15.50;99.90;;;;;;4220111;28;20071;-85
2023/06/10 05:36:42;;;;;;;11.23;3.97;;;15.60;99.90;;;;;;4209766;28;20548;-86
2023/06/10 05:38:43;;;;;;;12.95;4.72;;;15.60;99.90;;;;;;4183625;28;20053;-86
2023/06/10 05:40:43;;;;;;;9.27;4.03;;;15.60;99.90;;;;;;4194530;28;20936;-86
2023/06/10 05:42:44;;;;;;;11.20;4.72;;;15.70;99.90;;;;;;4188851;28;20524;-86
2023/06/10 05:44:46;;;;;;;9.15;4.25;;;15.80;99.90;;;;;;4195450;28;20052;-86
2023/06/10 05:46:47;;;;;;;11.93;4.72;;;15.80;99.90;;;;;;4199277;28;20048;-86
2023/06/10 05:48:48;;;;;;;7.68;3.78;;;15.90;99.90;;;;;;4183601;28;20100;-86
2023/06/10 05:50:50;;;;;;;8.05;3.58;;;15.90;99.90;;;;;;4199607;28;20125;-86
2023/06/10 05:52:53;;;;;;;12.13;4.70;;;16.00;99.90;;;;;;4219315;28;20044;-85
2023/06/10 05:54:54;;;;;;;10.73;4.72;;;16.00;99.90;;;;;;4218520;28;20110;-85
2023/06/10 05:56:55;;;;;;;10.38;3.97;;;16.00;99.90;;;;;;4218048;28;20454;-85
2023/06/10 05:58:58;;;;;;;7.20;3.65;;;16.00;99.90;;;;;;4218970;28;20064;-86
2023/06/10 06:01:00;;;;;;;12.20;4.82;;;16.10;99.90;;;;;;4217189;28;20067;-84
2023/06/10 06:03:01;;;;;;;11.25;4.53;;;16.10;99.90;;;;;;4218861;28;20051;-84
2023/06/10 06:05:02;;;;;;;7.65;3.80;;;16.30;99.90;;;;;;4181718;28;20045;-85
2023/06/10 06:07:05;;;;;;;13.27;3.92;;;16.20;99.90;;;;;;4212472;28;20123;-85
2023/06/10 06:09:08;;;;;;;11.10;4.55;;;16.30;99.90;;;;;;4185307;28;20053;-84
2023/06/10 06:11:09;;;;;;;9.82;3.78;;;16.40;99.90;;;;;;4199978;28;20090;-85
2023/06/10 06:13:10;;;;;;;7.35;4.45;;;16.40;99.90;;;;;;4200446;28;20477;-84
2023/06/10 06:15:11;;;;;;;11.52;4.20;;;16.50;99.90;;;;;;4199731;28;20044;-84
2023/06/10 06:17:12;;;;;;;14.35;4.57;;;16.60;99.90;;;;;;4182170;28;20049;-85
2023/06/10 06:19:13;;;;;;;11.32;3.97;;;16.70;99.90;;;;;;4199914;28;20588;-87
2023/06/10 06:21:15;;;;;;;9.07;3.50;;;16.80;99.90;;;;;;4201427;28;20105;-86
2023/06/10 06:23:16;;;;;;;7.78;4.05;;;16.90;99.90;;;;;;4198759;28;20091;-86
2023/06/10 06:25:17;;;;;;;12.27;4.20;;;16.90;99.90;;;;;;4185859;28;20048;-87
2023/06/10 06:27:18;;;;;;;7.55;3.85;;;17.00;99.90;;;;;;4182974;28;20099;-87
2023/06/10 06:29:19;;;;;;;9.27;3.53;;;17.10;99.90;;;;;;4189149;28;20048;-87
2023/06/10 06:31:20;;;;;;;9.43;3.97;;;17.10;99.90;;;;;;4175033;28;20482;-86
2023/06/10 06:33:20;;;;;;;9.00;4.40;;;17.20;99.90;;;;;;4189709;28;20120;-87
2023/06/10 06:35:21;;;;;;;10.18;3.60;;;17.20;99.90;;;;;;4199057;28;20049;-87
2023/06/10 06:37:25;;;;;;;9.63;3.40;;;17.20;99.90;;;;;;4198668;28;20063;-86
2023/06/10 06:39:26;;;;;;;9.40;4.10;;;17.30;99.90;;;;;;4215867;28;20052;-86
2023/06/10 06:41:27;;;;;;;11.95;4.32;;;17.40;99.90;;;;;;4217665;28;20049;-85
2023/06/10 06:43:29;;;;;;;8.50;3.85;;;17.40;99.90;;;;;;4217123;28;20511;-86
2023/06/10 06:45:31;;;;;;;7.70;3.83;;;17.50;99.90;;;;;;4218109;28;20044;-85
2023/06/10 06:47:31;;;;;;;8.00;3.80;;;17.60;99.90;;;;;;4217250;28;20043;-86
2023/06/10 06:49:32;;;;;;;9.73;3.65;;;17.70;99.90;;;;;;4200258;28;20048;-85
2023/06/10 06:51:33;;;;;;;13.80;3.75;;;17.70;99.90;;;;;;4217482;28;20388;-85
2023/06/10 06:53:34;;;;;;;12.48;4.30;;;17.80;99.90;;;;;;4218412;28;20407;-86
2023/06/10 06:55:37;;;;;;;13.95;4.13;;;17.90;99.90;;;;;;4212078;28;20047;-86
2023/06/10 06:57:38;;;;;;;9.20;3.60;;;18.00;99.90;;;;;;4216482;28;20406;-86
2023/06/10 06:59:39;;;;;;;8.32;3.90;;;18.10;99.90;;;;;;4200594;28;20174;-86
2023/06/10 07:01:40;;;;;;;9.02;3.38;;;18.20;99.90;;;;;;4206836;28;20047;-86
2023/06/10 07:03:41;;;;;;;9.13;3.20;;;18.30;99.90;;;;;;4201019;28;20043;-86
2023/06/10 07:05:42;;;;;;;13.85;5.45;;;18.40;99.90;;;;;;4182527;28;20092;-86
2023/06/10 07:07:44;;;;;;;9.43;3.55;;;18.50;99.90;;;;;;4200434;28;20060;-86
2023/06/10 07:09:46;;;;;;;8.93;3.58;;;18.60;99.90;;;;;;4182696;28;20519;-86
2023/06/10 07:11:47;;;;;;;10.07;3.65;;;18.80;99.90;;;;;;4198684;28;20032;-86
2023/06/10 07:13:47;;;;;;;9.40;3.50;;;18.90;99.90;;;;;;4218295;28;20047;-86
2023/06/10 07:15:49;;;;;;;10.02;3.60;;;18.90;99.90;;;;;;4216423;28;20048;-85
2023/06/10 07:17:53;;;;;;;6.88;3.53;;;19.00;99.90;;;;;;4213168;28;20069;-86
2023/06/10 07:19:57;;;;;;;9.82;3.42;;;19.10;99.90;;;;;;4217746;28;20492;-87
2023/06/10 07:21:57;;;;;;;7.45;3.92;;;19.20;99.90;;;;;;4216825;28;20099;-88
2023/06/10 07:23:58;;;;;;;8.85;3.50;;;19.30;99.90;;;;;;4198585;28;20040;-87
2023/06/10 07:25:59;;;;;;;8.65;3.95;;;19.40;99.90;;;;;;4217076;28;20044;-87
2023/06/10 07:28:00;;;;;;;7.13;3.47;;;19.50;99.90;;;;;;4184826;28;20045;-90
2023/06/10 07:30:01;;;;;;;10.40;3.58;;;19.60;99.90;;;;;;4182991;28;20051;-88
2023/06/10 07:32:04;;;;;;;12.68;4.97;;;19.70;99.90;;;;;;4219047;28;20119;-91
2023/06/10 07:34:05;;;;;;;7.18;3.28;;;19.80;99.90;;;;;;4193020;28;20045;-91
2023/06/10 07:36:07;;;;;;;7.57;3.35;;;19.80;99.90;;;;;;4183261;28;20555;-87
2023/06/10 07:38:07;;;;;;;7.88;3.25;;;19.90;99.90;;;;;;4207435;28;20391;-90
2023/06/10 07:40:09;;;;;;;8.13;3.47;;;20.00;99.90;;;;;;4201397;28;20052;-89
2023/06/10 07:42:10;;;;;;;9.43;3.40;;;20.10;99.90;;;;;;4183142;28;20045;-87
2023/06/10 07:44:13;;;;;;;6.82;2.72;;;20.20;99.90;;;;;;4181480;28;20053;-89
2023/06/10 07:46:14;;;;;;;7.90;3.10;;;20.30;99.90;;;;;;4212276;28;20476;-89
2023/06/10 07:48:15;;;;;;;8.02;3.17;;;20.40;99.90;;;;;;4173669;28;20076;-88
2023/06/10 07:50:17;;;;;;;10.20;3.55;;;20.40;99.90;;;;;;4199315;28;20231;-88
2023/06/10 07:52:18;;;;;;;7.57;2.97;;;20.50;99.90;;;;;;4216930;28;20040;-87
2023/06/10 07:54:18;;;;;;;7.00;3.35;;;20.60;99.90;;;;;;4182946;28;20053;-88
2023/06/10 07:56:21;;;;;;;9.48;3.40;;;20.60;99.90;;;;;;4200066;28;20096;-85
2023/06/10 07:58:23;;;;;;;3.80;2.55;;;20.70;99.90;;;;;;4217306;28;20052;-90
2023/06/10 08:00:26;;;;;;;10.10;3.05;;;20.50;99.90;;;;;;4219740;28;20024;-91
2023/06/10 08:02:26;;;;;;;6.88;2.58;;;20.90;99.90;;;;;;4198176;28;20071;-91
2023/06/10 08:04:27;;;;;;;8.07;2.90;;;21.10;99.90;;;;;;4181478;28;20053;-92
2023/06/10 08:06:29;;;;;;;6.70;2.88;;;21.10;99.90;;;;;;4178382;28;20048;-92
2023/06/10 08:08:30;;;;;;;8.65;3.35;;;21.20;99.90;;;;;;4185138;28;20076;-92
2023/06/10 08:10:33;;;;;;;7.18;3.03;;;21.40;99.90;;;;;;4199796;28;20067;-91
2023/06/10 08:12:34;;;;;;;7.88;3.42;;;21.40;99.90;;;;;;4216137;28;20055;-93
2023/06/10 08:14:38;;;;;;;12.55;2.95;;;21.60;99.90;;;;;;4218861;28;20514;-91
2023/06/10 08:16:44;;;;;;;8.43;3.55;;;21.60;99.90;;;;;;4215975;28;20051;-91
2023/06/10 08:18:45;;;;;;;6.35;2.90;;;21.60;99.90;;;;;;4234969;28;20043;-92
2023/06/10 08:20:47;;;;;;;4.43;2.33;;;21.70;99.90;;;;;;4182773;28;20390;-90
2023/06/10 08:22:48;;;;;;;6.60;3.08;;;21.90;99.90;;;;;;4182838;28;20118;-92
2023/06/10 08:24:49;;;;;;;7.55;2.90;;;22.00;99.90;;;;;;4217304;28;20078;-92
2023/06/10 08:26:52;;;;;;;8.98;2.50;;;22.20;99.90;;;;;;4181756;28;20045;-92
2023/06/10 08:28:54;;;;;;;6.25;2.70;;;22.30;99.90;;;;;;4218634;28;20028;-89
2023/06/10 08:30:55;;;;;;;5.72;2.35;;;22.40;99.90;;;;;;4168760;28;20572;-90
2023/06/10 08:32:56;;;;;;;4.97;3.10;;;22.60;99.90;;;;;;4196867;28;20036;-89
2023/06/10 08:34:59;;;;;;;6.22;2.97;;;22.60;99.90;;;;;;4197962;28;20436;-89
2023/06/10 08:36:59;;;;;;;5.80;2.60;;;22.70;99.90;;;;;;4199908;28;20516;-90
2023/06/10 08:39:01;;;;;;;6.43;2.67;;;22.90;99.90;;;;;;4199422;28;20111;-89
2023/06/10 08:41:05;;;;;;;7.85;2.90;;;23.00;99.90;;;;;;4199092;28;20056;-90
2023/06/10 08:43:10;;;;;;;10.27;3.00;;;23.00;99.90;;;;;;4200149;28;20036;-89
2023/06/10 08:45:23;;;;;;;4.72;2.35;;;23.10;99.90;;;;;;4183584;28;20135;-88
2023/06/10 08:47:25;;;;;;;6.45;3.08;;;23.20;99.90;;;;;;4215933;28;20116;-89
2023/06/10 08:49:29;;;;;;;6.93;2.70;;;23.40;99.90;;;;;;4199187;28;20494;-87
2023/06/10 08:51:32;;;;;;;6.45;2.97;;;23.50;99.90;;;;;;4215955;28;20044;-89
2023/06/10 08:53:37;;;;;;;7.30;2.50;;;23.60;99.90;;;;;;4216263;28;20075;-91
2023/06/10 08:55:44;;;;;;;4.82;2.47;;;23.60;99.90;;;;;;4174721;28;20189;-92
2023/06/10 08:57:47;;;;;;;6.43;2.38;;;23.80;99.90;;;;;;4191771;28;20048;-88
2023/06/10 08:59:49;;;;;;;8.23;3.10;;;24.00;99.90;;;;;;4210810;28;20173;-86
2023/06/10 09:01:50;;;;;;;8.00;2.35;;;24.20;99.90;;;;;;4184633;28;20582;-87
2023/06/10 09:03:52;;;;;;;5.93;2.42;;;24.30;99.90;;;;;;4203690;28;20045;-87
2023/06/10 09:05:56;;;;;;;5.28;2.53;;;24.50;99.90;;;;;;4215812;28;20040;-87
2023/06/10 09:07:58;;;;;;;5.05;2.70;;;24.70;99.90;;;;;;4201023;28;20052;-87
2023/06/10 09:10:07;;;;;;;5.63;3.00;;;24.80;99.90;;;;;;4219383;28;20051;-87
2023/06/10 09:12:08;;;;;;;7.57;2.83;;;24.90;99.50;;;;;;4219879;28;20044;-88
2023/06/10 09:14:12;;;;;;;11.15;2.85;;;24.80;99.50;;;;;;4203002;28;20056;-88
2023/06/10 09:16:19;;;;;;;6.32;2.63;;;25.00;99.20;;;;;;4216805;28;20101;-88
2023/06/10 09:18:20;;;;;;;8.55;2.97;;;25.20;99.10;;;;;;4202933;28;20412;-87
2023/06/10 09:20:21;;;;;;;5.70;2.38;;;25.30;99.00;;;;;;4202726;28;20044;-87
2023/06/10 09:22:26;;;;;;;8.00;3.00;;;25.50;98.60;;;;;;4201498;28;20064;-88
2023/06/10 09:24:27;;;;;;;9.40;2.75;;;25.70;98.10;;;;;;4201885;28;20091;-88
2023/06/10 09:26:32;;;;;;;7.70;2.90;;;25.80;97.90;;;;;;4184520;28;20497;-87
2023/06/10 09:28:33;;;;;;;5.75;2.80;;;25.90;97.20;;;;;;4201055;28;20397;-87
2023/06/10 09:30:35;;;;;;;8.70;2.70;;;26.00;97.10;;;;;;4206175;28;20071;-87
2023/06/10 09:32:39;;;;;;;7.07;2.55;;;26.10;96.60;;;;;;4213057;28;20044;-87
2023/06/10 09:34:41;;;;;;;5.05;2.55;;;26.30;96.00;;;;;;4207395;28;20021;-87
2023/06/10 09:36:42;;;;;;;10.48;3.17;;;26.50;95.80;;;;;;4217897;28;20048;-85
2023/06/10 09:38:43;;;;;;;7.43;3.40;;;26.60;95.40;;;;;;4218513;28;20047;-86
2023/06/10 09:40:52;;;;;;;7.25;2.50;;;26.60;94.80;;;;;;4199439;28;20060;-88
2023/06/10 09:42:55;;;;;;;5.88;2.50;;;26.70;94.90;;;;;;4218644;28;20499;-88
2023/06/10 09:44:57;;;;;;;8.88;2.50;;;26.70;95.40;;;;;;4219010;28;20052;-90
2023/06/10 09:46:59;;;;;;;8.63;2.78;;;26.90;95.20;;;;;;4200438;28;20060;-88
2023/06/10 09:49:01;;;;;;;5.03;2.50;;;26.90;94.90;;;;;;4217172;28;20526;-87
2023/06/10 09:51:03;;;;;;;5.53;2.40;;;27.10;94.40;;;;;;4217128;28;20047;-87
2023/06/10 09:53:06;;;;;;;4.90;2.45;;;27.20;94.20;;;;;;4218229;28;20476;-86
2023/06/10 09:55:10;;;;;;;8.55;3.30;;;27.30;93.70;;;;;;4218307;28;20103;-87
2023/06/10 09:57:12;;;;;;;4.35;2.20;;;27.40;93.40;;;;;;4193824;28;20468;-88
2023/06/10 09:59:13;;;;;;;6.47;2.85;;;27.50;93.50;;;;;;4192388;28;20048;-89
2023/06/10 10:01:15;;;;;;;5.93;3.35;;;28.00;93.30;;;;;;4201397;28;20071;-88
2023/06/10 10:03:22;;;;;;;4.80;2.28;;;27.80;92.70;;;;;;4201810;28;20079;-88
2023/06/10 10:05:23;;;;;;;7.18;2.58;;;27.60;91.60;;;;;;4201576;28;20488;-88
2023/06/10 10:07:24;;;;;;;7.40;3.13;;;27.80;91.80;;;;;;4201351;28;20105;-88
2023/06/10 10:09:25;;;;;;;7.18;2.70;;;28.00;91.70;;;;;;4183806;28;20053;-88
2023/06/10 10:11:27;;;;;;;7.10;2.70;;;27.90;91.50;;;;;;4183904;28;20128;-85
2023/06/10 10:13:31;;;;;;;5.45;2.83;;;28.10;91.30;;;;;;4200810;28;20032;-84
2023/06/10 10:15:34;;;;;;;7.95;3.10;;;28.30;91.40;;;;;;4200319;28;20116;-85
2023/06/10 10:17:40;;;;;;;5.65;2.35;;;28.40;90.90;;;;;;4218853;28;20044;-85
2023/06/10 10:19:57;;;;;;;6.70;2.80;;;28.60;90.50;;;;;;4217919;28;20040;-85
2023/06/10 10:22:11;;;;;;;5.85;2.60;;;28.80;90.00;;;;;;4213649;28;20508;-85
2023/06/10 10:24:21;;;;;;;4.82;2.22;;;29.00;90.60;;;;;;4212174;28;20108;-85
2023/06/10 10:26:25;;;;;;;7.50;2.20;;;29.20;89.50;;;;;;4218185;28;20104;-85
2023/06/10 10:28:38;;;;;;;8.10;3.25;;;29.20;88.70;;;;;;4206631;28;20044;-86
2023/06/10 10:30:49;;;;;;;8.80;2.80;;;29.40;87.10;;;;;;4215433;28;20062;-86
2023/06/10 10:33:04;;;;;;;11.27;2.72;;;29.50;84.90;;;;;;4216791;28;20127;-86
2023/06/10 10:35:12;;;;;;;4.20;2.55;;;29.50;83.40;;;;;;4202568;28;20068;-86